• Join FlightAware (Why Join?)
  • Login
  • US Flag 
03:34AM EDT


 

Airport Tracker/Info


-or-


 

Live Flight TrackerFlight Track Log ✈ DAL6225 ✈ 10-Jul-2013 ✈ KMSN - KLGA

Flight Track Log - Related Links

Times and Time Zones

All times are in EDT time to prevent confusion due to time zone crossing. See the DAL6225 flight status page for this flight to view local times or setup timezone preferences in your user account.

Time Position Orientation Groundspeed Altitude Reporting Facility
EDT Latitude Longitude Course Direction KTS MPH feet Rate Location/Type
08:04AM 43.1714 -89.3097 93° East 163 188 2,900  Level Chicago Center
08:05AM 43.1678 -89.2147 93° East 242 278 4,600 2,040 Climbing Chicago Center
08:06AM 43.1622 -89.0800 93° East 298 343 7,200 2,520 Climbing Chicago Center
08:07AM 43.1553 -88.9567 94° East 320 368 9,900 1,860 Climbing Chicago Center
08:08AM 43.1478 -88.8194 94° East 367 422 11,100 1,500 Climbing Chicago Center
08:09AM 43.1383 -88.6692 95° East 392 451 13,000 1,980 Climbing Chicago Center
08:10AM 43.1297 -88.5131 94° East 410 472 15,200 2,160 Climbing Chicago Center
08:11AM 43.1183 -88.3289 95° East 418 481 17,500 1,980 Climbing Chicago Center
08:12AM 43.1228 -88.1675 88° East 427 491 19,300 1,620 Climbing Chicago Center
08:13AM 43.1300 -88.0000 87° East 440 506 20,900 1,500 Climbing Chicago Center
08:14AM 43.1383 -87.8297 86° East 446 513 22,400 1,380 Climbing Chicago Center
08:15AM 43.1456 -87.6542 87° East 457 526 23,800 1,380 Climbing Chicago Center
08:16AM 43.1556 -87.4425 86° East 473 544 25,300 1,260 Climbing Chicago Center
08:17AM 43.1622 -87.2586 87° East 482 555 26,500 1,140 Climbing Chicago Center
08:18AM 43.1706 -87.0719 86° East 490 564 27,700 960 Climbing Chicago Center
08:19AM 43.1772 -86.8814 87° East 499 574 28,600 780 Climbing Chicago Center
08:20AM 43.1836 -86.6892 87° East 505 581 29,400 780 Climbing Chicago Center
08:21AM 43.1914 -86.4886 87° East 517 595 30,300 840 Climbing Chicago Center
08:22AM 43.1978 -86.2917 87° East 519 597 31,200 900 Climbing Chicago Center
08:23AM 43.2056 -86.0519 87° East 527 606 32,200 960 Climbing Chicago Center
08:25AM 43.2122 -85.8531 87° East 527 606 33,200 960 Climbing Chicago Center
08:26AM 43.2169 -85.6567 88° East 521 600 34,200 840 Climbing Chicago Center
08:27AM 43.2228 -85.4619 88° East 520 598 35,000 720 Climbing Chicago Center
08:28AM 43.2272 -85.2653 88° East 518 596 35,800 780 Climbing Chicago Center
08:29AM 43.2317 -85.0694 88° East 516 594 36,700 540 Climbing Chicago Center
08:30AM 43.2342 -84.8653 89° East 518 596 37,000 120 Climbing Chicago Center
08:31AM 43.2389 -84.6656 88° East 522 601 37,000  Level Chicago Center
08:32AM 43.2425 -84.4297 89° East 516 594 37,000  Level Chicago Center
08:33AM 43.2439 -84.2486 89° East 513 590 37,000  Level Cleveland Center
08:34AM 43.2469 -84.0919 88° East 513 590 37,000  Level Cleveland Center
08:35AM 43.2494 -83.8583 89° East 512 589 37,000  Level Cleveland Center
08:36AM 43.2508 -83.6617 89° East 512 589 37,000  Level Cleveland Center
08:37AM 43.2517 -83.4619 90° East 517 595 37,000  Level Cleveland Center
08:38AM 43.2544 -83.2656 89° East 517 595 37,000  Level Cleveland Center
08:39AM 43.2544 -83.0744 90° East 511 588 37,000  Level Cleveland Center
08:40AM 43.2564 -82.8808 89° East 511 588 37,000  Level Cleveland Center
08:41AM 43.2517 -82.6867 92° East 511 588 37,000  Level Cleveland Center
08:42AM 43.2444 -82.5011 93° East 500 575 37,000  Level Cleveland Center
08:43AM 43.2306 -82.3297 96° East 500 575 37,000  Level Cleveland Center
08:44AM 43.2000 -82.1000 100° East 500 575 37,000  Level Toronto Center
08:45AM 43.1833 -81.9167 97° East 500 575 37,000  Level Toronto Center
08:46AM 43.1833 -81.7167 90° East 500 575 37,000  Level Toronto Center
08:47AM 43.1667 -81.5500 98° East 500 575 37,000  Level Toronto Center
08:48AM 43.1500 -81.3500 96° East 500 575 37,000  Level Toronto Center
08:49AM 43.1333 -81.1667 97° East 500 575 37,000  Level Toronto Center
08:50AM 43.1167 -80.9500 96° East 500 575 37,000  Level Toronto Center
08:51AM 43.1167 -80.7667 90° East 500 575 37,000  Level Toronto Center
08:52AM 43.1000 -80.6000 98° East 500 575 37,000  Level Toronto Center
08:53AM 43.0833 -80.4167 97° East 500 575 37,000  Level Toronto Center
08:54AM 43.0667 -80.2000 96° East 500 575 37,000  Level Toronto Center
08:55AM 43.0500 -80.0167 97° East 510 587 37,000  Level Toronto Center
08:56AM 43.0333 -79.8167 96° East 500 575 37,000  Level Toronto Center
08:57AM 43.0167 -79.6333 97° East 500 575 37,000  Level Toronto Center
08:58AM 43.0000 -79.4500 97° East 490 564 37,000  Level Toronto Center
08:59AM 42.9833 -79.2667 97° East 490 564 37,000  Level Toronto Center
09:00AM 42.9667 -79.0833 97° East 490 564 37,000  Level Toronto Center
09:01AM 42.9500 -78.9000 97° East 490 564 37,000  Level Toronto Center
09:02AM 42.9333 -78.7167 97° East 490 564 37,000  Level Toronto Center
09:03AM 42.9247 -78.6042 96° East 486 559 37,000  Level Cleveland Center
09:04AM 42.9067 -78.4147 97° East 486 559 37,000  Level Cleveland Center
09:05AM 42.8864 -78.2283 98° East 486 559 37,000  Level Cleveland Center
09:06AM 42.8678 -78.0394 98° East 492 566 37,000  Level Cleveland Center
09:07AM 42.8489 -77.8503 98° East 497 572 37,000  Level Cleveland Center
09:08AM 42.8275 -77.6589 99° East 503 579 37,000  Level Cleveland Center
09:09AM 42.8017 -77.4675 100° East 503 579 37,000  Level Cleveland Center
09:10AM 42.7764 -77.3019 102° East 503 579 37,000  Level Cleveland Center
09:11AM 42.7317 -77.0086 102° East 500 575 37,000  Level Boston Center
09:12AM 42.7056 -76.8231 101° East 494 568 37,000 -180 Level Boston Center
09:13AM 42.6744 -76.6033 101° East 489 563 36,700 -660 Descending Boston Center
09:14AM 42.6494 -76.4236 101° East 489 563 35,700 -1,020 Descending Boston Center
09:15AM 42.6203 -76.2439 102° East 489 563 34,700 -1,020 Descending Boston Center
09:16AM 42.5983 -76.0875 101° East 477 549 33,700 -1,020 Descending Boston Center
09:17AM 42.5706 -75.9081 102° East 477 549 32,700 -1,020 Descending Boston Center
09:18AM 42.5425 -75.7261 102° East 477 549 31,700 -960 Descending Boston Center
09:19AM 42.5122 -75.5414 102° East 483 556 30,700 -1,020 Descending Boston Center
09:20AM 42.4803 -75.3286 101° East 483 556 29,500 -1,140 Descending Boston Center
09:21AM 42.4344 -75.1606 110° East 483 556 28,500 -900 Descending Boston Center
09:22AM 42.3875 -75.0319 116° Southeast 476 548 27,700 -1,500 Descending Boston Center
09:23AM 42.3206 -74.8494 116° Southeast 465 535 25,600 -1,980 Descending Boston Center
09:25AM 42.2653 -74.6986 116° Southeast 454 522 23,400 -2,220 Descending Boston Center
09:26AM 42.2019 -74.5253 116° Southeast 441 507 20,800 -2,280 Descending Boston Center
09:27AM 42.1464 -74.3722 116° Southeast 421 484 18,900 -1,500 Descending Boston Center
09:28AM 42.0900 -74.2419 120° Southeast 407 468 17,900 -480 Descending Boston Center
09:29AM 42.0317 -74.1172 122° Southeast 401 461 18,000  Climbing Boston Center
09:30AM 41.9625 -74.0036 129° Southeast 401 461 18,000 -300 Level Boston Center
09:31AM 41.8669 -73.9678 164° South 381 438 17,400 -1,260 Descending Boston Center
09:32AM 41.7569 -73.9317 166° South 372 428 15,500 -1,740 Descending Boston Center
09:33AM 41.6678 -73.9047 167° South 372 428 14,000 -1,260 Descending Boston Center
09:34AM 41.5597 -73.8689 166° South 372 428 13,000 -1,560 Descending Boston Center
09:35AM 41.4500 -73.8333 166° South 348 400 10,800 -1,740 Descending New York TRACON
09:36AM 41.3667 -73.8000 163° South 291 335 9,400 -1,260 Descending New York TRACON
09:37AM 41.3000 -73.7667 159° South 296 341 8,300 -1,380 Descending New York TRACON
09:38AM 41.2333 -73.7000 143° Southeast 289 333 6,700 -1,800 Descending New York TRACON
09:39AM 41.1667 -73.6333 143° Southeast 279 321 4,800 -1,320 Descending New York TRACON
09:40AM 41.1000 -73.6167 169° South 236 272 4,000 -420 Descending New York TRACON
09:41AM 41.0500 -73.6500 207° Southwest 197 227 4,000  Level New York TRACON
09:42AM 41.0167 -73.6833 217° Southwest 196 226 4,000 -180 Level New York TRACON
09:43AM 40.9667 -73.7167 207° Southwest 193 222 3,700 -480 Descending New York TRACON
09:43AM 40.9333 -73.7500 217° Southwest 194 223 3,200 -780 Descending New York TRACON
09:45AM 40.8833 -73.7833 207° Southwest 183 211 2,200 -840 Descending New York TRACON
09:45AM 40.8500 -73.8167 217° Southwest 132 152 1,600 -780 Descending New York TRACON
09:46AM 40.8167 -73.8500 217° Southwest 140 161 800 -780 Descending New York TRACON
09:47AM 40.8000 -73.8667 217° Southwest 130 150 200 -720 Descending New York TRACON
09:49AM 40.7772 -73.8726 180° South  Level Estimated
09:56AM 40.7772 -73.8726 180° South  Level Estimated
09:57AM 40.7772 -73.8726 180° South  Level Estimated